Time;durP1;ratioP1;P1;durP2;ratioP2;P2;SDS_P1;SDS_P2;PMS_P1;PMS_P2;Temp;Humidity;BMP_temperature;BMP_pressure;BME280_temperature;BME280_humidity;BME280_pressure;Samples;Min_cycle;Max_cycle;Signal;HPM_P1;HPM_P2
2022/04/17 00:00:52;;;;;;;3.60;2.27;;;14.40;40.30;;;-142.21;45.88;112049.66;5091283;28;21047;-72
2022/04/17 00:03:21;;;;;;;3.77;3.00;;;14.40;39.70;;;-142.21;46.46;112049.66;5085285;28;20855;-72
2022/04/17 00:05:50;;;;;;;4.00;2.30;;;14.40;40.10;;;-142.21;47.99;112049.66;5071705;28;20439;-72
2022/04/17 00:08:18;;;;;;;2.40;2.17;;;14.30;40.20;;;-142.21;49.98;112049.66;5077297;28;20802;-72
2022/04/17 00:10:46;;;;;;;2.37;1.90;;;14.20;40.20;;;-142.21;49.64;112049.66;5073729;28;20450;-72
2022/04/17 00:13:15;;;;;;;2.30;2.10;;;14.20;40.70;;;-142.21;50.16;112049.66;5089733;28;20443;-72
2022/04/17 00:15:42;;;;;;;2.10;1.90;;;14.10;41.10;;;-142.21;48.25;112049.66;5093565;28;20460;-70
2022/04/17 00:18:20;;;;;;;2.50;2.20;;;14.10;40.60;;;-142.21;50.53;112049.66;5091559;28;20541;-72
2022/04/17 00:20:51;;;;;;;2.60;2.40;;;14.00;40.50;;;-142.21;51.00;112049.66;5077782;28;20502;-72
2022/04/17 00:23:18;;;;;;;2.67;2.00;;;13.90;40.80;;;-142.21;49.88;112049.66;5075461;28;20786;-72
2022/04/17 00:25:45;;;;;;;3.80;2.30;;;13.90;40.80;;;-142.21;48.87;112049.66;5078705;28;20462;-72
2022/04/17 00:28:12;;;;;;;4.23;2.57;;;13.90;40.70;;;-142.21;52.37;112049.66;5085141;28;20520;-72
2022/04/17 00:30:40;;;;;;;2.40;2.20;;;13.80;41.00;;;-142.21;49.94;112049.66;5092652;28;20445;-72
2022/04/17 00:33:07;;;;;;;3.83;2.50;;;13.80;41.00;;;-142.21;51.27;112049.66;5080540;28;20548;-72
2022/04/17 00:35:35;;;;;;;2.63;2.20;;;13.90;41.10;;;-142.21;52.44;112049.66;5092866;28;20521;-72
2022/04/17 00:38:04;;;;;;;3.27;2.63;;;13.90;41.40;;;-142.21;52.58;112049.66;5085435;28;20825;-72
2022/04/17 00:40:31;;;;;;;2.53;2.33;;;13.80;41.20;;;-142.21;52.06;112049.66;5076018;28;20494;-72
2022/04/17 00:42:59;;;;;;;3.10;2.33;;;13.80;41.50;;;-142.21;51.44;112049.66;5087285;28;20446;-72
2022/04/17 00:45:27;;;;;;;3.63;2.20;;;13.70;41.30;;;-142.21;51.60;112049.66;5078273;28;20444;-72
2022/04/17 00:47:54;;;;;;;3.50;2.73;;;13.70;41.20;;;-142.21;52.63;112049.66;5081929;28;20450;-73
2022/04/17 00:50:21;;;;;;;3.13;2.60;;;13.60;41.70;;;-142.21;53.64;112049.66;5075327;28;20441;-72
2022/04/17 00:52:49;;;;;;;3.10;2.70;;;13.50;42.10;;;-142.21;54.35;112049.66;5075411;28;20817;-72
2022/04/17 00:55:17;;;;;;;3.67;2.73;;;13.50;41.70;;;-142.21;55.67;112049.66;5080001;28;20451;-72
2022/04/17 00:57:45;;;;;;;3.27;2.40;;;13.50;41.70;;;-142.21;53.44;112049.66;5088600;28;20450;-72
2022/04/17 01:00:14;;;;;;;3.33;2.77;;;13.40;41.80;;;-142.21;56.48;112049.66;5088447;28;20931;-72
2022/04/17 01:02:42;;;;;;;3.53;2.80;;;13.30;42.10;;;-142.21;55.44;112049.66;5076028;28;20617;-72
2022/04/17 01:05:09;;;;;;;3.70;2.67;;;13.20;42.20;;;-142.21;57.24;112049.66;5088468;28;20442;-72
2022/04/17 01:07:38;;;;;;;3.37;2.40;;;13.10;42.90;;;-142.21;57.19;112049.66;5089011;28;20448;-72
2022/04/17 01:10:08;;;;;;;2.87;2.50;;;13.10;42.90;;;-142.21;57.92;112049.66;5075551;28;20439;-71
2022/04/17 01:12:38;;;;;;;2.87;2.57;;;13.10;43.30;;;-142.21;56.02;112049.66;5078092;28;20504;-71
2022/04/17 01:15:07;;;;;;;3.23;2.40;;;13.00;42.70;;;-142.21;58.10;112049.66;5074511;28;20451;-72
2022/04/17 01:17:34;;;;;;;3.60;2.43;;;12.90;43.20;;;-142.21;59.62;112049.66;5077945;28;21060;-72
2022/04/17 01:20:02;;;;;;;2.53;2.33;;;12.90;43.10;;;-142.21;61.26;112049.66;5093134;28;20446;-72
2022/04/17 01:22:31;;;;;;;3.20;2.70;;;12.90;43.60;;;-142.21;62.79;112049.66;5089164;28;20565;-71
2022/04/17 01:27:43;;;;;;;3.80;2.50;;;12.70;44.30;;;-142.21;61.78;112049.66;5085234;28;20492;-71
2022/04/17 01:30:11;;;;;;;3.27;2.60;;;12.70;44.30;;;-142.21;61.87;112049.66;5107009;28;20496;-71
2022/04/17 01:32:38;;;;;;;3.53;2.77;;;12.60;43.90;;;-142.21;62.47;112049.66;5115028;28;20938;-71
2022/04/17 01:35:07;;;;;;;2.83;2.40;;;12.60;44.30;;;-142.21;63.57;112049.66;5112299;28;20471;-72
2022/04/17 01:37:36;;;;;;;4.43;2.77;;;12.60;44.10;;;-142.21;66.29;112049.66;5111138;28;20447;-71
2022/04/17 01:40:03;;;;;;;2.53;2.33;;;12.50;44.10;;;-142.21;65.29;112049.66;5094766;28;20434;-71
2022/04/17 01:42:30;;;;;;;3.07;2.60;;;12.50;44.40;;;-142.21;66.58;112049.66;5095176;28;20543;-72
2022/04/17 01:44:57;;;;;;;3.93;2.87;;;12.40;44.40;;;-142.21;67.70;112049.66;5102511;28;20529;-72
2022/04/17 01:47:24;;;;;;;3.10;2.70;;;12.40;44.60;;;-142.21;66.53;112049.66;5095889;28;20507;-72
2022/04/17 01:49:51;;;;;;;3.53;2.50;;;12.30;45.20;;;-142.21;69.05;112049.66;5074471;28;20793;-72
2022/04/17 01:52:18;;;;;;;3.10;2.67;;;12.30;45.40;;;-142.21;66.95;112049.66;5080381;28;20844;-72
2022/04/17 01:54:47;;;;;;;3.57;2.63;;;12.30;44.70;;;-142.21;66.75;112049.66;5074688;28;20948;-72
2022/04/17 01:57:14;;;;;;;3.33;2.57;;;12.20;44.90;;;-142.21;66.68;112049.66;5075671;28;20541;-71
2022/04/17 01:59:41;;;;;;;3.10;2.67;;;12.20;45.10;;;-142.21;67.03;112049.66;5074524;28;20440;-72
2022/04/17 02:02:08;;;;;;;3.20;2.90;;;12.20;44.90;;;-142.21;66.90;112049.66;5091728;28;20503;-72
2022/04/17 02:04:36;;;;;;;3.07;2.80;;;12.20;44.70;;;-142.21;66.55;112049.66;5090110;28;20478;-72
2022/04/17 02:07:03;;;;;;;2.60;2.40;;;12.30;44.80;;;-142.21;66.10;112049.66;5094336;28;20457;-72
2022/04/17 02:09:30;;;;;;;2.50;2.27;;;12.30;44.90;;;-142.21;68.64;112049.66;5091440;28;20464;-72
2022/04/17 02:11:59;;;;;;;2.50;2.30;;;12.20;45.20;;;-142.21;68.15;112049.66;5082236;28;20450;-72
2022/04/17 02:14:26;;;;;;;3.00;2.70;;;12.20;45.70;;;-142.21;64.74;112049.66;5084502;28;20444;-72
2022/04/17 02:16:53;;;;;;;3.00;2.70;;;12.20;44.70;;;-142.21;65.84;112049.66;5072762;28;20505;-72
2022/04/17 02:19:20;;;;;;;2.77;2.57;;;12.20;45.00;;;-142.21;68.04;112049.66;5068060;28;20458;-72
2022/04/17 02:21:47;;;;;;;4.07;2.60;;;12.20;44.90;;;-142.21;66.31;112049.66;5086201;28;20485;-72
2022/04/17 02:24:15;;;;;;;2.70;2.43;;;12.10;44.80;;;-142.21;66.47;112049.66;5076432;28;20458;-72
2022/04/17 02:26:42;;;;;;;3.90;2.50;;;12.10;45.00;;;-142.21;65.14;112049.66;5082321;28;20446;-71
2022/04/17 02:29:10;;;;;;;5.57;3.00;;;12.10;44.60;;;-142.21;67.08;112049.66;5077405;28;20474;-71
2022/04/17 02:31:38;;;;;;;2.93;2.73;;;12.20;44.40;;;-142.21;67.14;112049.66;5075727;28;20435;-72
2022/04/17 02:34:05;;;;;;;3.00;2.70;;;12.10;44.80;;;-142.21;64.95;112049.66;5078157;28;20451;-72
2022/04/17 02:36:33;;;;;;;4.13;2.90;;;12.20;44.60;;;-142.21;65.53;112049.66;5080467;28;20445;-72
2022/04/17 02:39:00;;;;;;;3.53;3.00;;;12.20;44.70;;;-142.21;70.12;112049.66;5079987;28;20443;-72
2022/04/17 02:41:27;;;;;;;3.03;2.73;;;12.10;45.60;;;-142.21;66.48;112049.66;5073139;28;20493;-71
2022/04/17 02:43:54;;;;;;;4.00;2.73;;;12.10;45.50;;;-142.21;65.53;112049.66;5091983;28;20489;-72
2022/04/17 02:49:08;;;;;;;3.57;2.83;;;12.10;44.90;;;-142.21;73.57;112049.66;5077815;28;20450;-72
2022/04/17 02:51:35;;;;;;;3.77;2.93;;;12.10;45.10;;;-142.21;67.59;112049.66;5085968;28;20868;-72
2022/04/17 02:54:02;;;;;;;3.53;2.40;;;12.00;44.90;;;-142.21;66.68;112049.66;5089951;28;20931;-73
2022/04/17 02:56:29;;;;;;;3.53;3.00;;;12.00;45.10;;;-142.21;68.43;112049.66;5087056;28;20450;-72
2022/04/17 02:58:56;;;;;;;3.20;2.90;;;12.00;45.30;;;-142.21;69.60;112049.66;5080556;28;20442;-72
2022/04/17 03:06:56;;;;;;;3.27;2.97;;;11.80;45.40;;;-142.21;66.64;112049.66;5072039;28;20496;-73
2022/04/17 03:09:25;;;;;;;3.90;3.00;;;11.80;45.80;;;-142.21;69.70;112049.66;5086331;28;20546;-72
2022/04/17 03:11:52;;;;;;;3.90;2.97;;;11.70;45.60;;;-142.21;69.32;112049.66;5083413;28;20443;-72
2022/04/17 03:14:19;;;;;;;4.37;3.00;;;11.70;45.90;;;-142.21;69.86;112049.66;5072932;28;20451;-72
2022/04/17 03:16:47;;;;;;;2.90;2.60;;;11.70;45.90;;;-142.21;69.11;112049.66;5087147;28;20454;-72
2022/04/17 03:19:14;;;;;;;2.87;2.67;;;11.70;45.40;;;-142.21;69.23;112049.66;5077384;28;20518;-71
2022/04/17 03:21:42;;;;;;;3.60;3.07;;;11.70;45.50;;;-142.21;70.37;112049.66;5071881;28;20479;-72
2022/04/17 03:24:09;;;;;;;3.97;2.87;;;11.70;45.70;;;-142.21;68.53;112049.66;5075152;28;20910;-72
2022/04/17 03:26:38;;;;;;;3.90;3.03;;;11.70;45.60;;;-142.21;66.98;112049.66;5076773;28;20503;-72
2022/04/17 03:29:05;;;;;;;3.33;2.53;;;11.60;45.70;;;-142.21;67.98;112049.66;5079266;28;20451;-72
2022/04/17 03:31:32;;;;;;;5.67;3.07;;;11.60;45.60;;;-142.21;68.33;112049.66;5083283;28;20534;-72
2022/04/17 03:34:01;;;;;;;3.80;3.13;;;11.60;45.80;;;-142.21;69.82;112049.66;5084133;28;20439;-72
2022/04/17 03:36:28;;;;;;;6.00;2.73;;;11.60;46.30;;;-142.21;69.62;112049.66;5079204;28;20447;-71
2022/04/17 03:38:55;;;;;;;4.83;2.80;;;11.70;46.00;;;-142.21;68.98;112049.66;5083625;28;20449;-72
2022/04/17 03:41:22;;;;;;;4.00;2.93;;;11.60;45.60;;;-142.21;70.24;112049.66;5079993;28;20587;-71
2022/04/17 03:43:49;;;;;;;4.90;3.30;;;11.60;45.90;;;-142.21;72.30;112049.66;5087002;28;21042;-72
2022/04/17 03:46:16;;;;;;;3.40;3.13;;;11.60;46.00;;;-142.21;71.67;112049.66;5072699;28;20545;-72
2022/04/17 03:48:43;;;;;;;3.00;2.70;;;11.60;45.80;;;-142.21;72.92;112049.66;5077354;28;20447;-72
2022/04/17 03:51:12;;;;;;;4.17;2.80;;;11.60;45.70;;;-142.21;71.75;112049.66;5075658;28;20448;-72
2022/04/17 03:53:39;;;;;;;3.53;3.10;;;11.60;46.30;;;-142.21;68.94;112049.66;5090301;28;20442;-72
2022/04/17 03:56:06;;;;;;;3.30;2.90;;;11.50;46.00;;;-142.21;68.08;112049.66;5077109;28;20811;-71
2022/04/17 03:58:33;;;;;;;4.67;2.87;;;11.50;45.60;;;-142.21;64.92;112049.66;5076835;28;20443;-71
2022/04/17 04:01:00;;;;;;;3.67;2.97;;;11.30;46.40;;;-142.21;70.79;112049.66;5083311;28;20475;-71
2022/04/17 04:03:28;;;;;;;3.10;2.80;;;11.40;46.40;;;-142.21;69.62;112049.66;5087680;28;20532;-71
2022/04/17 04:05:55;;;;;;;6.13;3.17;;;11.40;46.70;;;-142.21;70.75;112049.66;5084898;28;20447;-71
2022/04/17 04:08:23;;;;;;;2.87;2.67;;;11.40;46.50;;;-142.21;71.41;112049.66;5094664;28;20488;-72
2022/04/17 04:10:50;;;;;;;2.97;2.53;;;11.50;46.50;;;-142.21;72.48;112049.66;5087430;28;20471;-70
2022/04/17 04:13:19;;;;;;;4.53;3.57;;;11.50;46.20;;;-142.21;71.16;112049.66;5088897;28;20807;-72
2022/04/17 04:15:46;;;;;;;5.00;3.10;;;11.50;46.30;;;-142.21;72.73;112049.66;5089111;28;20446;-72
2022/04/17 04:18:13;;;;;;;3.47;3.10;;;11.50;46.10;;;-142.21;72.23;112049.66;5086734;28;20474;-72
2022/04/17 04:20:40;;;;;;;4.03;3.10;;;11.50;46.40;;;-142.21;76.57;112049.66;5075669;28;20450;-72
2022/04/17 04:23:07;;;;;;;3.73;3.17;;;11.50;46.80;;;-142.21;77.28;112049.66;5086916;28;20488;-72
2022/04/17 04:25:35;;;;;;;3.90;3.07;;;11.50;47.40;;;-142.21;77.11;112049.66;5088772;28;20549;-72
2022/04/17 04:30:49;;;;;;;4.30;3.37;;;11.40;47.70;;;-142.21;79.98;112049.66;5083022;28;20434;-72
2022/04/17 04:33:16;;;;;;;4.57;3.17;;;11.30;47.90;;;-142.21;79.46;112049.66;5087591;28;20450;-72
2022/04/17 04:35:43;;;;;;;3.30;2.90;;;11.30;47.40;;;-142.21;77.97;112049.66;5074893;28;20454;-72
2022/04/17 04:38:11;;;;;;;3.10;2.73;;;11.30;47.70;;;-142.21;78.74;112049.66;5080832;28;20458;-72
2022/04/17 04:40:41;;;;;;;5.13;3.20;;;11.30;47.40;;;-142.21;76.87;112049.66;5093392;28;20553;-72
2022/04/17 04:43:08;;;;;;;3.30;3.00;;;11.30;47.10;;;-142.21;77.49;112049.66;5094610;28;20566;-72
2022/04/17 04:49:29;;;;;;;3.93;3.23;;;11.20;47.70;;;-142.21;76.61;112049.66;5081207;28;20431;-72
2022/04/17 04:51:08;;;;;;;3.93;3.03;;;11.10;47.50;;;-142.21;74.64;112049.66;5094131;28;20499;-72
2022/04/17 04:53:35;;;;;;;3.50;2.80;;;11.00;47.30;;;-142.21;74.63;112049.66;5075617;28;20447;-72
2022/04/17 04:56:03;;;;;;;3.03;2.80;;;11.00;47.40;;;-142.21;74.16;112049.66;5075499;28;20449;-71
2022/04/17 04:58:30;;;;;;;3.10;2.80;;;11.10;47.60;;;-142.21;73.37;112049.66;5074983;28;20439;-72
2022/04/17 05:00:58;;;;;;;3.90;2.97;;;11.00;46.90;;;-142.21;70.31;112049.66;5074085;28;20451;-72
2022/04/17 05:03:25;;;;;;;3.33;2.83;;;11.00;47.10;;;-142.21;75.48;112049.66;5075645;28;20536;-71
2022/04/17 05:05:52;;;;;;;4.33;2.93;;;11.00;47.20;;;-142.21;72.03;112049.66;5082594;28;20447;-72
2022/04/17 05:08:22;;;;;;;3.47;2.83;;;11.00;47.20;;;-142.21;74.23;112049.66;5081828;28;20529;-71
2022/04/17 05:10:49;;;;;;;2.77;2.57;;;11.10;47.30;;;-142.21;76.90;112049.66;5092126;28;20436;-72
2022/04/17 05:13:18;;;;;;;3.47;2.90;;;11.20;47.60;;;-142.21;71.52;112049.66;5076405;28;20439;-72
2022/04/17 05:15:45;;;;;;;3.40;3.10;;;11.10;47.10;;;-142.21;78.32;112049.66;5081124;28;20458;-72
2022/04/17 05:18:12;;;;;;;3.23;2.77;;;11.20;47.50;;;-142.21;79.61;112049.66;5092372;28;20478;-72
2022/04/17 05:20:39;;;;;;;2.90;2.70;;;11.20;47.80;;;-142.21;76.46;112049.66;5076081;28;20546;-72
2022/04/17 05:23:18;;;;;;;3.33;2.97;;;11.30;47.70;;;-142.21;77.03;112049.66;5092254;28;20482;-72
2022/04/17 05:25:47;;;;;;;4.13;2.97;;;11.30;47.70;;;-142.21;73.41;112049.66;5079883;28;20435;-72
2022/04/17 05:28:14;;;;;;;4.70;3.00;;;11.30;47.00;;;-142.21;71.34;112049.66;5073662;28;20455;-72
2022/04/17 05:30:43;;;;;;;4.53;3.30;;;11.30;46.80;;;-142.21;74.85;112049.66;5077813;28;20447;-72
2022/04/17 05:33:11;;;;;;;3.53;2.93;;;11.30;47.20;;;-142.21;74.68;112049.66;5081166;28;20530;-71
2022/04/17 05:35:39;;;;;;;3.47;3.10;;;11.40;47.20;;;-142.21;73.67;112049.66;5086596;28;20504;-72
2022/04/17 05:38:07;;;;;;;3.60;2.80;;;11.40;47.50;;;-142.21;72.11;112049.66;5088625;28;20964;-71
2022/04/17 05:40:37;;;;;;;3.10;2.80;;;11.40;46.90;;;-142.21;73.50;112049.66;5077858;28;20833;-72
2022/04/17 05:43:05;;;;;;;3.93;3.30;;;11.50;46.90;;;-142.21;74.44;112049.66;5094999;28;20467;-72
2022/04/17 05:45:33;;;;;;;4.00;2.90;;;11.60;47.10;;;-142.21;70.81;112049.66;5075927;28;20455;-72
2022/04/17 05:48:02;;;;;;;4.43;2.70;;;11.60;47.10;;;-142.21;68.06;112049.66;5076131;28;20456;-72
2022/04/17 05:50:29;;;;;;;5.07;3.00;;;11.70;46.60;;;-142.21;65.79;112049.66;5077900;28;20443;-72
2022/04/17 05:52:57;;;;;;;4.20;3.20;;;11.70;46.60;;;-142.21;68.61;112049.66;5080403;28;20440;-72
2022/04/17 05:55:24;;;;;;;3.47;3.10;;;11.80;47.00;;;-142.21;68.85;112049.66;5077619;28;20465;-72
2022/04/17 05:57:51;;;;;;;3.10;2.77;;;11.90;46.00;;;-142.21;64.11;112049.66;5072958;28;20435;-71
2022/04/17 06:00:18;;;;;;;3.40;3.10;;;12.10;46.20;;;-142.21;61.52;112049.66;5086111;28;20940;-71
2022/04/17 06:02:46;;;;;;;3.50;3.00;;;12.30;45.90;;;-142.21;65.95;112049.66;5073611;28;21068;-72
2022/04/17 06:05:17;;;;;;;4.10;3.17;;;12.30;45.80;;;-142.21;62.49;112049.66;5073382;28;20451;-72
2022/04/17 06:07:44;;;;;;;3.37;2.93;;;12.40;45.10;;;-142.21;63.00;112049.66;5080103;28;20508;-72
2022/04/17 06:10:14;;;;;;;3.80;3.40;;;12.30;45.60;;;-142.21;61.38;112049.66;5090978;28;20442;-72
2022/04/17 06:12:42;;;;;;;2.97;2.67;;;12.40;45.10;;;-142.21;69.49;112049.66;5079608;28;20444;-72
2022/04/17 06:15:11;;;;;;;3.53;2.73;;;12.50;46.30;;;-142.21;64.78;112049.66;5091455;28;20458;-72
2022/04/17 06:17:40;;;;;;;3.07;2.77;;;12.50;45.80;;;-142.21;60.71;112049.66;5091408;28;20482;-72
2022/04/17 06:20:10;;;;;;;2.90;2.63;;;12.60;45.70;;;-142.21;60.76;112049.66;5092780;28;20475;-72
2022/04/17 06:22:39;;;;;;;4.17;3.23;;;12.60;44.90;;;-142.21;61.02;112049.66;5089225;28;20570;-72
2022/04/17 06:25:08;;;;;;;4.03;3.33;;;12.70;45.80;;;-142.21;63.05;112049.66;5086641;28;20980;-72
2022/04/17 06:27:41;;;;;;;3.77;3.00;;;12.80;45.20;;;-142.21;59.54;112049.66;5075082;28;20451;-72
2022/04/17 06:30:11;;;;;;;3.73;3.17;;;12.90;45.80;;;-142.21;59.25;112049.66;5077368;28;20438;-72
2022/04/17 06:32:39;;;;;;;3.97;3.10;;;13.00;45.70;;;-142.21;59.30;112049.66;5091873;28;20435;-72
2022/04/17 06:35:07;;;;;;;3.40;3.10;;;13.10;44.70;;;-142.21;57.80;112049.66;5086497;28;20444;-72
2022/04/17 06:37:49;;;;;;;3.53;2.80;;;13.20;44.50;;;-142.21;62.59;112049.66;5091843;28;20764;-72
2022/04/17 06:40:18;;;;;;;4.37;3.10;;;13.30;44.70;;;-142.21;59.97;112049.66;5082312;28;20440;-72
2022/04/17 06:42:46;;;;;;;4.43;3.30;;;13.50;45.30;;;-142.21;58.49;112049.66;5078927;28;21040;-72
2022/04/17 06:45:13;;;;;;;4.57;3.30;;;13.50;44.30;;;-142.21;63.09;112049.66;5083678;28;20449;-72
2022/04/17 06:47:40;;;;;;;3.57;3.10;;;13.80;46.00;;;-142.21;58.25;112049.66;5074967;28;20447;-72
2022/04/17 06:50:08;;;;;;;2.60;2.40;;;13.90;43.80;;;-142.21;55.24;112049.66;5091948;28;20438;-71
2022/04/17 06:52:35;;;;;;;3.93;3.00;;;14.10;43.00;;;-142.21;56.48;112049.66;5076687;28;20957;-72
2022/04/17 06:55:08;;;;;;;3.93;2.63;;;14.60;43.70;;;-142.21;53.83;112049.66;5091979;28;20485;-72
2022/04/17 06:57:37;;;;;;;3.43;3.00;;;15.00;42.40;;;-142.21;52.26;112049.66;5090344;28;20431;-72
2022/04/17 07:00:09;;;;;;;2.83;2.57;;;15.40;42.00;;;-142.21;55.09;112049.66;5074066;28;20821;-72
2022/04/17 07:02:36;;;;;;;3.17;2.67;;;15.50;42.20;;;-142.21;49.26;112049.66;5081772;28;20828;-72
2022/04/17 07:05:04;;;;;;;3.53;3.17;;;15.80;39.70;;;-142.21;49.44;112049.66;5092006;28;20950;-72
2022/04/17 07:07:31;;;;;;;4.40;3.30;;;15.70;40.10;;;-142.21;48.77;112049.66;5083817;28;20450;-72
2022/04/17 07:09:58;;;;;;;4.40;2.57;;;15.30;41.00;;;-142.21;49.06;112049.66;5084635;28;20530;-72
2022/04/17 07:12:27;;;;;;;3.00;2.70;;;15.00;41.30;;;-142.21;50.18;112049.66;5091194;28;20530;-72
2022/04/17 07:14:54;;;;;;;3.20;2.83;;;14.90;42.40;;;-142.21;51.01;112049.66;5082260;28;20444;-72
2022/04/17 07:17:21;;;;;;;3.63;2.90;;;15.40;42.70;;;-142.21;48.88;112049.66;5072994;28;20565;-72
2022/04/17 07:19:50;;;;;;;2.80;2.60;;;15.40;41.40;;;-142.21;49.04;112049.66;5089855;28;20543;-72
2022/04/17 07:22:17;;;;;;;3.87;2.67;;;15.10;41.80;;;-142.21;51.82;112049.66;5087863;28;20811;-71
2022/04/17 07:24:51;;;;;;;3.97;2.53;;;15.00;43.10;;;-142.21;53.89;112049.66;5075456;28;20554;-71
2022/04/17 07:27:20;;;;;;;2.93;2.53;;;15.10;43.80;;;-142.21;50.77;112049.66;5083063;28;20525;-71
2022/04/17 07:29:48;;;;;;;3.20;2.80;;;15.20;42.50;;;-142.21;47.37;112049.66;5060074;28;20529;-72
2022/04/17 07:32:15;;;;;;;4.67;3.10;;;15.40;41.40;;;-142.21;49.68;112049.66;5092429;28;20439;-72
2022/04/17 07:34:42;;;;;;;3.23;2.70;;;15.60;41.30;;;-142.21;51.20;112049.66;5095065;28;20442;-72
2022/04/17 07:37:09;;;;;;;3.57;2.70;;;15.50;42.90;;;-142.21;53.25;112049.66;5084075;28;20447;-72
2022/04/17 07:39:36;;;;;;;4.80;2.90;;;15.60;42.80;;;-142.21;49.96;112049.66;5082237;28;20443;-72
2022/04/17 07:42:04;;;;;;;3.07;2.67;;;15.80;42.10;;;-142.21;51.62;112049.66;5076423;28;20446;-72
2022/04/17 07:44:32;;;;;;;2.60;2.37;;;16.10;41.90;;;-142.21;49.02;112049.66;5086332;28;20452;-72
2022/04/17 07:47:01;;;;;;;2.83;2.50;;;16.30;41.90;;;-142.21;46.11;112049.66;5090141;28;20459;-72
2022/04/17 07:49:28;;;;;;;2.70;2.50;;;16.30;40.60;;;-142.21;46.82;112049.66;5082901;28;20532;-72
2022/04/17 07:51:56;;;;;;;3.93;2.97;;;16.30;40.60;;;-142.21;46.43;112049.66;5095240;28;20470;-71
2022/04/17 07:54:23;;;;;;;2.27;2.07;;;16.20;41.20;;;-142.21;45.06;112049.66;5092534;28;20531;-71
2022/04/17 07:56:50;;;;;;;2.70;2.17;;;16.20;40.20;;;-142.21;46.54;112049.66;5080155;28;20443;-72
2022/04/17 07:59:17;;;;;;;4.17;2.30;;;16.20;40.90;;;-142.21;41.48;112049.66;5087281;28;20499;-72
2022/04/17 08:01:46;;;;;;;2.97;2.20;;;16.20;39.30;;;-142.21;40.86;112049.66;5095928;28;20450;-71
2022/04/17 08:04:14;;;;;;;2.40;2.20;;;16.00;38.20;;;-142.21;42.57;112049.66;5093938;28;20536;-72
2022/04/17 08:06:41;;;;;;;2.63;2.10;;;16.10;39.70;;;-142.21;40.17;112049.66;5093980;28;20446;-71
2022/04/17 08:09:08;;;;;;;2.43;2.00;;;16.10;38.30;;;-142.21;41.76;112049.66;5089603;28;20542;-71
2022/04/17 08:11:37;;;;;;;2.20;2.00;;;16.20;38.80;;;-142.21;39.83;112049.66;5075578;28;20550;-72
2022/04/17 08:14:05;;;;;;;2.50;2.10;;;16.30;38.80;;;-142.21;39.41;112049.66;5083531;28;20451;-72
2022/04/17 08:16:32;;;;;;;2.13;1.90;;;16.30;38.10;;;-142.21;39.18;112049.66;5087743;28;21000;-72
2022/04/17 08:18:59;;;;;;;2.93;2.00;;;16.30;37.00;;;-142.21;37.60;112049.66;5077010;28;22119;-72
2022/04/17 08:21:28;;;;;;;2.40;2.20;;;16.30;37.60;;;-142.21;37.98;112049.66;5088919;28;20793;-72
2022/04/17 08:23:55;;;;;;;1.93;1.80;;;16.30;38.10;;;-142.21;38.16;112049.66;5095068;28;21026;-72
2022/04/17 08:26:22;;;;;;;1.90;1.70;;;16.40;37.50;;;-142.21;37.86;112049.66;5080206;28;20508;-72
2022/04/17 08:28:49;;;;;;;3.13;2.30;;;16.50;37.90;;;-142.21;37.03;112049.66;5087820;28;20857;-72
2022/04/17 08:31:16;;;;;;;2.40;1.90;;;16.60;36.70;;;-142.21;36.67;112049.66;5083926;28;20927;-72
2022/04/17 08:33:43;;;;;;;1.90;1.70;;;16.70;37.10;;;-142.21;36.24;112049.66;5092144;28;20446;-72
2022/04/17 08:36:12;;;;;;;1.80;1.70;;;16.80;35.30;;;-142.21;37.37;112049.66;5090316;28;20450;-72
2022/04/17 08:38:42;;;;;;;2.23;2.00;;;16.80;35.90;;;-142.21;35.45;112049.66;5082961;28;20455;-71
2022/04/17 08:41:12;;;;;;;2.60;1.70;;;16.70;34.20;;;-142.21;36.44;112049.66;5082421;28;20531;-72
2022/04/17 08:43:39;;;;;;;2.97;1.90;;;16.90;34.50;;;-142.21;37.29;112049.66;5083365;28;20913;-72
2022/04/17 08:46:07;;;;;;;1.83;1.57;;;17.00;35.40;;;-142.21;35.20;112049.66;5077751;28;20456;-71
2022/04/17 08:48:35;;;;;;;2.57;1.70;;;17.10;34.90;;;-142.21;34.73;112049.66;5086831;28;20974;-72
2022/04/17 08:51:05;;;;;;;2.50;2.07;;;17.10;34.10;;;-142.21;34.96;112049.66;5083791;28;20543;-72
2022/04/17 08:53:35;;;;;;;4.30;2.13;;;17.40;34.00;;;-142.21;34.55;112049.66;5083649;28;20447;-72
2022/04/17 08:56:05;;;;;;;2.80;1.90;;;17.60;32.90;;;-142.21;33.51;112049.66;5091999;28;20541;-72
2022/04/17 08:58:33;;;;;;;4.47;2.40;;;17.70;32.50;;;-142.21;33.01;112049.66;5092947;28;20685;-71
2022/04/17 09:01:01;;;;;;;2.17;1.97;;;17.90;31.50;;;-142.21;33.78;112049.66;5089896;28;20443;-72
2022/04/17 09:03:28;;;;;;;2.40;1.60;;;18.00;33.30;;;-142.21;32.81;112049.66;5092257;28;20474;-72
2022/04/17 09:05:56;;;;;;;2.23;1.73;;;18.30;32.70;;;-142.21;33.98;112049.66;5086960;28;20442;-71
2022/04/17 09:08:24;;;;;;;2.17;1.60;;;18.70;34.00;;;-142.21;32.64;112049.66;5074259;28;20503;-73
2022/04/17 09:10:56;;;;;;;1.60;1.40;;;19.00;32.50;;;-142.21;31.85;112049.66;5089619;28;20521;-73
2022/04/17 09:13:32;;;;;;;1.97;1.60;;;19.40;32.60;;;-142.21;33.92;112049.66;5094137;28;20450;-72
2022/04/17 09:16:00;;;;;;;4.13;2.47;;;22.10;34.20;;;-142.21;26.54;112049.66;5078174;28;20450;-74
2022/04/17 09:18:32;;;;;;;2.13;1.60;;;28.00;27.70;;;-142.21;24.01;112049.66;5081625;28;20604;-73
2022/04/17 09:21:01;;;;;;;1.97;1.43;;;30.60;24.70;;;-142.21;22.96;112049.66;5079447;28;20221;-73
2022/04/17 09:23:36;;;;;;;1.70;1.47;;;28.20;25.00;;;-142.21;23.90;112049.66;5085915;28;20221;-72
2022/04/17 09:26:05;;;;;;;2.17;1.40;;;26.00;25.80;;;-142.21;24.66;112049.66;5076124;28;20201;-73
2022/04/17 09:28:38;;;;;;;1.70;1.40;;;24.30;25.80;;;-142.21;25.80;112049.66;5077527;28;20211;-72
2022/04/17 09:31:13;;;;;;;1.73;1.57;;;23.30;27.50;;;-142.21;27.52;112049.66;5086156;28;20248;-73
2022/04/17 09:33:49;;;;;;;2.40;1.80;;;22.50;28.50;;;-142.21;27.58;112049.66;5091864;28;20265;-74
2022/04/17 09:36:16;;;;;;;1.77;1.60;;;22.00;28.60;;;-142.21;27.86;112049.66;5092379;28;20217;-74
2022/04/17 09:38:47;;;;;;;1.70;1.60;;;21.70;30.00;;;-142.21;28.06;112049.66;5082146;28;20288;-73
2022/04/17 09:41:14;;;;;;;1.53;1.43;;;21.50;29.10;;;-142.21;29.40;112049.66;5091591;28;20641;-73
2022/04/17 09:43:44;;;;;;;3.70;1.90;;;21.40;29.50;;;-142.21;28.90;112049.66;5084040;28;20223;-72
2022/04/17 09:46:12;;;;;;;2.20;1.60;;;21.20;29.50;;;-142.21;28.98;112049.66;5085894;28;20205;-73
2022/04/17 09:48:41;;;;;;;2.07;1.67;;;21.00;29.40;;;-142.21;28.17;112049.66;5075369;28;20198;-78
2022/04/17 09:51:23;;;;;;;3.17;1.80;;;21.00;28.40;;;-142.21;29.36;112049.66;5083532;28;20227;-71
2022/04/17 09:53:59;;;;;;;2.17;1.80;;;20.90;32.50;;;-142.21;28.92;112049.66;5089501;28;20188;-73
2022/04/17 09:56:34;;;;;;;2.57;1.60;;;21.00;29.60;;;-142.21;28.01;112049.66;5090607;28;20196;-73
2022/04/17 09:59:17;;;;;;;2.07;1.87;;;21.00;29.10;;;-142.21;29.44;112049.66;5074032;28;20637;-72
2022/04/17 10:01:46;;;;;;;2.10;1.90;;;21.10;31.90;;;-142.21;31.39;112049.66;5073641;28;20200;-76
2022/04/17 10:04:16;;;;;;;1.40;1.30;;;21.20;32.80;;;-142.21;29.68;112049.66;5085230;28;20220;-74
2022/04/17 10:06:44;;;;;;;1.83;1.70;;;21.30;31.10;;;-142.21;28.76;112049.66;5091792;28;20216;-74
2022/04/17 10:09:13;;;;;;;1.87;1.67;;;21.20;29.30;;;-142.21;31.02;112049.66;5074945;28;20281;-74
2022/04/17 10:11:41;;;;;;;1.60;1.50;;;21.30;33.70;;;-142.21;28.91;112049.66;5081874;28;20265;-74
2022/04/17 10:14:11;;;;;;;1.90;1.50;;;21.40;29.90;;;-142.21;28.77;112049.66;5078922;28;20199;-74
2022/04/17 10:16:42;;;;;;;2.00;1.50;;;21.10;30.40;;;-142.21;28.54;112049.66;5073532;28;20212;-74
2022/04/17 10:19:16;;;;;;;2.53;1.47;;;21.30;29.50;;;-142.21;28.98;112049.66;5064727;28;20459;-75
2022/04/17 10:21:46;;;;;;;1.90;1.70;;;21.40;30.70;;;-142.21;28.79;112049.66;5050990;28;20215;-75